Free Trial

This company has been marked as potentially delisted and may not be actively trading.

BlackRock MuniVest Fund (MVF) Institutional Ownership

BlackRock MuniVest Fund logo

Institutional Ownership Changes (13F Filings) for BlackRock MuniVest Fund (NYSE:MVF)

Current
Institutional Ownership
Percentage
48.16%
Number of
Institutional Buyers
(last 12 months)
49
Total
Institutional Inflows
(last 12 months)
$19.90M
Number of
Institutional Sellers
(last 12 months)
36
Total
Institutional Outflows
(last 12 months)
$22.07M
Get MVF Insider Trade Alerts

Want to know when executives and insiders are buying or selling BlackRock MuniVest Fund stock? Sign up for InsiderTrades.com's daily newsletter to get the latest insider transactions delivered to your inbox daily.

SMS is currently available in Australia, Belgium, Canada, France, Germany, Ireland, Italy, New Zealand, the Netherlands, Singapore, South Africa, Spain, Switzerland, the United Kingdom, and the United States. By entering your phone number and clicking the sign-up button, you agree to receive periodic text messages from MarketBeat at the phone number you submitted, including texts that may be sent using an automatic telephone dialing system. Message and data rates may apply. Message frequency will vary. Messages will consist of stock alerts, news stories, and partner advertisements/offers. Consent is not a condition of the purchase of any goods or services. Text HELP for help/customer support. Unsubscribe at any time by replying "STOP" to any text message that you receive from MarketBeat or by visiting our mailing preferences page. Read our full terms of service and privacy policy.
Skip Chart & View Institutional Buying and Selling Data

MVF Institutional Buying and Selling by Quarter

BlackRock MuniVest Fund Major Shareholders & Ownership History

Reporting DateMajor Shareholder NameShares HeldMarket Value% of PortfolioQuarterly Change in SharesOwnership in CompanyDetails
2/25/2026Sit Investment Associates Inc.1,287,539$8.92M0.2%+11.2%2.245%
2/19/2026Invesco Ltd.124,626$864K0.0%-32.6%0.217%
2/18/2026NewEdge Advisors LLC10,813$75K0.0%N/A0.019%
2/18/2026Rivernorth Capital Management LLC2,774,988$19.23M0.9%-0.3%4.840%
2/18/20261607 Capital Partners LLC331,403$2.30M0.2%-14.4%0.578%
2/17/2026Guggenheim Capital LLC1,080,827$7.49M0.1%-20.1%1.885%
2/17/2026Cetera Investment Advisers16,144$112K0.0%+15.8%0.028%
2/17/2026Royal Bank of Canada137,728$954K0.0%+97.4%0.240%
2/13/2026Van ECK Associates Corp424,362$2.94M0.0%+15.0%0.740%
2/12/2026Advisors Asset Management Inc.221,530$1.54M0.0%-24.9%0.386%
2/12/2026 Hollencrest Capital Management7,153$50K0.0%N/A0.012%
2/12/2026Jane Street Group LLC27,963$194K0.0%N/A0.049%
2/12/2026Steward Partners Investment Advisory LLC12,335$85K0.0%+23.0%0.022%
2/12/2026 Nuveen LLC38,432$266K0.0%+25.0%0.067%
2/11/2026Cerity Partners LLC18,519$128K0.0%N/A0.032%
2/11/2026 LPL Financial LLC220,352$1.53M0.0%+2.8%0.384%
2/11/2026Fiera Capital Corp423,343$2.93M0.0%N/A0.738%
2/11/2026 Ackerman Capital Advisors LLC19,322$134K0.0%-16.9%0.034%
2/11/2026Closed End Fund Advisors Inc.15,007$104K0.1%N/A0.026%
2/6/2026 Aviance Capital Partners LLC35,334$245K0.0%+62.8%0.062%
2/5/2026 Elyxium Wealth LLC6,293$44K0.0%N/A0.011%
2/5/2026 Tilson Financial Group Inc.14,701$102K0.0%N/A0.026%
2/2/2026 Wolverine Asset Management LLC144,357$1M0.0%+148.4%0.252%
2/2/2026 Truist Financial Corp14,515$101K0.0%-11.2%0.025%
2/2/2026 Oppenheimer & Co. Inc.26,445$183K0.0%+20.6%0.046%
1/30/2026 Citizens National Bank Trust Department16,550$115K0.0%-10.8%0.029%
1/29/2026 Verdence Capital Advisors LLC27,539$191K0.0%N/A0.048%
1/29/2026 Mackay Shields LLC1,192,311$8.26M0.3%-2.6%2.079%
1/26/2026 River Street Advisors LLC17,542$122K0.0%N/A0.031%
1/26/2026CWM LLC4,261$30K0.0%+341.1%0.007%
1/21/2026 Leo Wealth LLC339,809$2.36M0.2%+37.2%0.593%
1/15/2026 Allspring Global Investments Holdings LLC636,977$4.41M0.0%+9.4%1.111%
1/14/2026Hennion & Walsh Asset Management Inc.508,653$3.53M0.1%-5.2%0.887%
1/13/2026 Capital Investment Advisors LLC288,970$2.00M0.0%-7.9%0.504%
1/12/2026 Moody National Bank Trust Division10,346$72K0.0%N/A0.018%
1/12/2026 David J Yvars Group35,300$245K0.1%N/A0.062%
1/8/2026 Gridiron Partners LLC345,632$2.40M1.4%+45.0%0.603%
1/7/2026Permanent Capital Management LP12,751$88K0.0%N/A0.022%
11/17/2025 Kestra Private Wealth Services LLC11,146$76K0.0%-58.8%0.019%
11/17/2025Susquehanna International Group LLP23,638$162K0.0%N/A0.041%
11/17/2025Integrated Wealth Concepts LLC53,074$364K0.0%-13.3%0.093%
11/17/2025City of London Investment Management Co. Ltd.215,857$1.48M0.1%N/A0.376%
11/17/2025Bank of America Corp DE502,020$3.44M0.0%+23.4%0.876%
11/17/20251607 Capital Partners LLC387,203$2.66M0.2%-18.7%0.675%
11/17/2025Ameriprise Financial Inc.33,300$228K0.0%-5.7%0.058%
11/14/2025Ancora Advisors LLC26,395$181K0.0%-7.3%0.046%
11/14/2025Raymond James Financial Inc.968,300$6.64M0.0%+4.0%1.689%
11/13/2025Pathstone Holdings LLC766,525$5.26M0.0%-25.7%1.337%
11/13/2025 UBS Group AG181,224$1.24M0.0%-4.1%0.316%
11/13/2025Van ECK Associates Corp368,865$2.53M0.0%+0.5%0.643%
11/12/2025Perennial Investment Advisors LLC15,022$103K0.0%N/A0.026%
11/10/2025 Dakota Wealth Management183,703$1.26M0.0%-7.3%0.320%
11/7/2025Readystate Asset Management LP17,713$122K0.0%-28.8%0.031%
11/6/2025Advisors Asset Management Inc.295,050$2.02M0.0%-35.6%0.515%
11/6/2025 Stratos Wealth Partners LTD.49,404$339K0.0%+171.4%0.086%
11/6/2025 Oppenheimer & Co. Inc.21,924$150K0.0%+22.3%0.038%
11/5/2025 J.W. Cole Advisors Inc.11,871$81K0.0%-17.2%0.021%
11/4/2025Allianz Asset Management GmbH324,716$2.23M0.0%-7.3%0.566%
11/3/2025 Truist Financial Corp16,343$112K0.0%-11.2%0.029%
10/29/2025 Aviance Capital Partners LLC21,706$149K0.0%-14.0%0.038%
10/28/2025 Wolverine Asset Management LLC58,116$399K0.0%-29.5%0.101%
10/27/2025 Mackay Shields LLC1,223,865$8.40M0.3%-7.3%2.134%
10/23/2025 Capital Investment Advisors LLC313,885$2.15M0.0%-4.9%0.547%
10/23/2025 Citizens National Bank Trust Department18,550$127K0.0%-15.9%0.032%
10/22/2025 Ackerman Capital Advisors LLC23,240$159K0.0%-16.6%0.041%
10/22/2025Hennion & Walsh Asset Management Inc.536,386$3.68M0.1%+10.1%0.935%
10/20/2025 Allspring Global Investments Holdings LLC582,448$4.00M0.0%+3.6%1.016%
10/17/2025 Indiana Trust & Investment Management Co150,686$1.03M0.3%-1.2%0.263%
10/14/2025 Riverbridge Partners LLC39,741$273K0.0%-4.1%0.069%
10/8/2025 Integrated Capital Management Inc.34,255$235K0.2%+5.2%0.060%
8/18/2025 Geneos Wealth Management Inc.4,728$31K0.0%+88.1%0.008%
8/15/2025Bank of America Corp DE406,679$2.68M0.0%-2.9%0.674%
8/15/2025Ameriprise Financial Inc.35,300$232K0.0%N/A0.059%
8/14/2025Jane Street Group LLC23,552$155K0.0%N/A0.039%
8/14/2025Raymond James Financial Inc.931,347$6.13M0.0%+16.4%1.544%
8/14/2025Karpus Management Inc.9,074,236$59.71M1.9%-12.2%15.045%
8/14/2025NewEdge Advisors LLC21,237$140K0.0%N/A0.035%
8/13/2025Guggenheim Capital LLC1,401,164$9.22M0.1%+6.1%2.323%
8/13/2025Invesco Ltd.226,702$1.49M0.0%-20.3%0.376%
8/13/2025Wellspring Financial Advisors LLC87,681$577K0.0%+9.3%0.145%
8/13/2025Lido Advisors LLC105,790$700K0.0%-6.6%0.175%
8/12/2025 J.W. Cole Advisors Inc.14,335$94K0.0%N/A0.024%
8/12/2025Horizon Kinetics Asset Management LLC93,068$612K0.0%N/A0.154%
8/8/2025Rockefeller Capital Management L.P.107,052$704K0.0%-8.0%0.178%
8/8/2025Cetera Investment Advisers14,391$95K0.0%-17.8%0.024%
8/8/2025PNC Financial Services Group Inc.82,727$544K0.0%-75.2%0.137%
8/5/2025 Aviance Capital Partners LLC25,226$166K0.0%+16.9%0.042%
8/4/2025Linscomb Wealth Inc.111,100$731K0.0%N/A0.184%
8/4/2025 Wolverine Asset Management LLC82,463$543K0.0%N/A0.137%
8/1/2025 Envestnet Asset Management Inc.168,766$1.11M0.0%+1.4%0.280%
7/29/2025 Stratos Wealth Partners LTD.18,204$120K0.0%N/A0.030%
7/28/2025Allianz Asset Management GmbH350,449$2.31M0.0%-7.0%0.581%
7/25/2025 Integrated Capital Management Inc.32,569$214K0.2%+12.5%0.054%
7/25/2025 Allspring Global Investments Holdings LLC562,242$3.70M0.0%-7.0%0.932%
7/25/2025 Ackerman Capital Advisors LLC27,882$183K0.0%+82.9%0.046%
7/24/2025 Mackay Shields LLC1,320,857$8.69M0.3%-7.0%2.190%
7/24/2025 Leo Wealth LLC322,826$2.12M0.2%+32.7%0.535%
7/23/2025 Citizens National Bank Trust Department22,050$145K0.0%-14.0%0.037%
7/22/2025 Realta Investment Advisors21,000$138K0.1%N/A0.035%
7/21/2025Ameritas Advisory Services LLC5,000$33K0.0%N/A0.008%


MVF Institutional Ownership - Frequently Asked Questions

During the previous two years, 104 institutional investors and hedge funds held shares of BlackRock MuniVest Fund. The most heavily invested institutionals were Karpus Management Inc. ($59.71M), Rivernorth Capital Management LLC ($19.23M), Sit Investment Associates Inc. ($8.92M), Mackay Shields LLC ($8.26M), Guggenheim Capital LLC ($7.49M), Raymond James Financial Inc. ($6.64M), and Robinson Capital Management LLC ($6.32M).Learn more on BlackRock MuniVest Fund's institutional investors.

48.16% of BlackRock MuniVest Fund's stock is owned by institutional investors. Learn more on MVF's institutional investor holdings.

Of the 84 institutional investors that purchased BlackRock MuniVest Fund's stock in the last 24 months, the following investors and hedge funds have bought the highest volume of shares: Raymond James Financial Inc. ($1.68M), Karpus Management Inc. ($955.07K), Sit Investment Associates Inc. ($938.55K), Fiera Capital Corp ($423.34K), Guggenheim Capital LLC ($360.40K), Hennion & Walsh Asset Management Inc. ($313.92K), and City of London Investment Management Co. Ltd. ($215.86K).

Institutional investors have bought a total of 2,948,455 shares in the last 24 months. This purchase volume represents approximately $20.16M in transactions.

Of the 36 institutional investors that sold BlackRock MuniVest Fund's stock in the last 24 months, the following investors and hedge funds have sold the highest volume of shares: Karpus Management Inc. ($1.26M), Guggenheim Capital LLC ($272.55K), Pathstone Holdings LLC ($264.95K), Advisors Asset Management Inc. ($253.95K), PNC Financial Services Group Inc. ($250.99K), Mackay Shields LLC ($228.12K), and 1607 Capital Partners LLC ($184.33K).

Institutional investors have sold a total of 3,279,403 shares in the last 24 months. This volume of shares sold represents approximately $22.07M in transactions.



This page (NYSE:MVF) was last updated on 5/9/2026 by MarketBeat.com Staff.
From Our Partners